sensor_id;sensor_type;location;lat;lon;timestamp;P1;durP1;ratioP1;P2;durP2;ratioP2
3991;SDS011;2010;48.194;16.394;2022-08-04T00:00:29;6.17;;;4.23;;
3991;SDS011;2010;48.194;16.394;2022-08-04T00:03:02;3.90;;;3.60;;
3991;SDS011;2010;48.194;16.394;2022-08-04T00:05:43;9.13;;;4.03;;
3991;SDS011;2010;48.194;16.394;2022-08-04T00:08:21;3.97;;;3.60;;
3991;SDS011;2010;48.194;16.394;2022-08-04T00:10:59;5.37;;;4.00;;
3991;SDS011;2010;48.194;16.394;2022-08-04T00:13:31;7.80;;;3.87;;
3991;SDS011;2010;48.194;16.394;2022-08-04T00:16:26;4.90;;;4.40;;
3991;SDS011;2010;48.194;16.394;2022-08-04T00:19:04;8.30;;;4.30;;
3991;SDS011;2010;48.194;16.394;2022-08-04T00:21:36;8.00;;;4.63;;
3991;SDS011;2010;48.194;16.394;2022-08-04T00:24:06;4.53;;;4.13;;
3991;SDS011;2010;48.194;16.394;2022-08-04T00:26:40;5.77;;;4.07;;
3991;SDS011;2010;48.194;16.394;2022-08-04T00:29:08;4.80;;;3.77;;
3991;SDS011;2010;48.194;16.394;2022-08-04T00:31:37;4.00;;;3.60;;
3991;SDS011;2010;48.194;16.394;2022-08-04T00:34:23;4.17;;;3.80;;
3991;SDS011;2010;48.194;16.394;2022-08-04T00:36:53;4.83;;;3.57;;
3991;SDS011;2010;48.194;16.394;2022-08-04T00:39:22;4.13;;;3.83;;
3991;SDS011;2010;48.194;16.394;2022-08-04T00:41:56;4.53;;;3.60;;
3991;SDS011;2010;48.194;16.394;2022-08-04T00:44:41;3.80;;;3.50;;
3991;SDS011;2010;48.194;16.394;2022-08-04T00:47:23;5.40;;;3.80;;
3991;SDS011;2010;48.194;16.394;2022-08-04T00:50:04;6.23;;;4.00;;
3991;SDS011;2010;48.194;16.394;2022-08-04T00:52:36;4.70;;;3.77;;
3991;SDS011;2010;48.194;16.394;2022-08-04T00:55:18;7.43;;;3.10;;
3991;SDS011;2010;48.194;16.394;2022-08-04T00:58:02;4.83;;;3.60;;
3991;SDS011;2010;48.194;16.394;2022-08-04T01:00:41;6.40;;;3.70;;
3991;SDS011;2010;48.194;16.394;2022-08-04T01:03:13;4.87;;;3.80;;
3991;SDS011;2010;48.194;16.394;2022-08-04T01:05:48;7.73;;;3.73;;
3991;SDS011;2010;48.194;16.394;2022-08-04T01:11:25;4.20;;;3.30;;
3991;SDS011;2010;48.194;16.394;2022-08-04T01:14:31;3.73;;;3.43;;
3991;SDS011;2010;48.194;16.394;2022-08-04T01:17:17;4.60;;;3.63;;
3991;SDS011;2010;48.194;16.394;2022-08-04T01:19:52;4.23;;;3.80;;
3991;SDS011;2010;48.194;16.394;2022-08-04T01:25:42;3.43;;;3.10;;
3991;SDS011;2010;48.194;16.394;2022-08-04T01:29:01;3.77;;;3.47;;
3991;SDS011;2010;48.194;16.394;2022-08-04T01:31:34;3.20;;;3.00;;
3991;SDS011;2010;48.194;16.394;2022-08-04T01:34:10;3.40;;;3.10;;
3991;SDS011;2010;48.194;16.394;2022-08-04T01:36:42;5.70;;;3.60;;
3991;SDS011;2010;48.194;16.394;2022-08-04T01:39:15;3.93;;;3.00;;
3991;SDS011;2010;48.194;16.394;2022-08-04T01:42:01;3.27;;;2.97;;
3991;SDS011;2010;48.194;16.394;2022-08-04T01:44:37;3.70;;;3.50;;
3991;SDS011;2010;48.194;16.394;2022-08-04T01:47:07;3.53;;;3.23;;
3991;SDS011;2010;48.194;16.394;2022-08-04T01:49:36;4.70;;;4.00;;
3991;SDS011;2010;48.194;16.394;2022-08-04T01:52:07;5.27;;;3.00;;
3991;SDS011;2010;48.194;16.394;2022-08-04T01:54:37;3.57;;;3.27;;
3991;SDS011;2010;48.194;16.394;2022-08-04T01:57:08;3.37;;;3.13;;
3991;SDS011;2010;48.194;16.394;2022-08-04T01:59:59;2.80;;;2.60;;
3991;SDS011;2010;48.194;16.394;2022-08-04T02:02:29;3.97;;;3.23;;
3991;SDS011;2010;48.194;16.394;2022-08-04T02:04:58;2.97;;;2.70;;
3991;SDS011;2010;48.194;16.394;2022-08-04T02:07:36;3.67;;;3.43;;
3991;SDS011;2010;48.194;16.394;2022-08-04T02:10:22;4.53;;;3.60;;
3991;SDS011;2010;48.194;16.394;2022-08-04T02:12:56;5.10;;;3.63;;
3991;SDS011;2010;48.194;16.394;2022-08-04T02:15:38;2.87;;;2.67;;
3991;SDS011;2010;48.194;16.394;2022-08-04T02:18:11;3.33;;;3.03;;
3991;SDS011;2010;48.194;16.394;2022-08-04T02:20:45;5.27;;;3.40;;
3991;SDS011;2010;48.194;16.394;2022-08-04T02:23:18;2.70;;;2.50;;
3991;SDS011;2010;48.194;16.394;2022-08-04T02:25:54;3.43;;;3.23;;
3991;SDS011;2010;48.194;16.394;2022-08-04T02:28:26;3.60;;;3.13;;
3991;SDS011;2010;48.194;16.394;2022-08-04T02:31:09;3.83;;;3.30;;
3991;SDS011;2010;48.194;16.394;2022-08-04T02:33:43;3.43;;;3.20;;
3991;SDS011;2010;48.194;16.394;2022-08-04T02:36:15;3.50;;;3.30;;
3991;SDS011;2010;48.194;16.394;2022-08-04T02:38:53;3.43;;;3.13;;
3991;SDS011;2010;48.194;16.394;2022-08-04T02:41:23;3.20;;;2.90;;
3991;SDS011;2010;48.194;16.394;2022-08-04T02:43:54;4.50;;;3.77;;
3991;SDS011;2010;48.194;16.394;2022-08-04T02:46:28;3.10;;;2.90;;
3991;SDS011;2010;48.194;16.394;2022-08-04T02:48:57;4.03;;;3.73;;
3991;SDS011;2010;48.194;16.394;2022-08-04T02:51:26;3.30;;;3.10;;
3991;SDS011;2010;48.194;16.394;2022-08-04T02:53:56;4.97;;;3.47;;
3991;SDS011;2010;48.194;16.394;2022-08-04T02:56:27;3.83;;;3.50;;
3991;SDS011;2010;48.194;16.394;2022-08-04T02:58:57;4.90;;;3.17;;
3991;SDS011;2010;48.194;16.394;2022-08-04T03:01:28;3.53;;;3.23;;
3991;SDS011;2010;48.194;16.394;2022-08-04T03:04:06;3.40;;;3.20;;
3991;SDS011;2010;48.194;16.394;2022-08-04T03:13:31;7.80;;;3.40;;
3991;SDS011;2010;48.194;16.394;2022-08-04T03:16:44;3.07;;;2.87;;
3991;SDS011;2010;48.194;16.394;2022-08-04T03:22:46;3.77;;;3.40;;
3991;SDS011;2010;48.194;16.394;2022-08-04T03:29:02;3.30;;;3.00;;
3991;SDS011;2010;48.194;16.394;2022-08-04T03:35:02;3.67;;;3.37;;
3991;SDS011;2010;48.194;16.394;2022-08-04T03:41:01;3.87;;;3.57;;
3991;SDS011;2010;48.194;16.394;2022-08-04T03:43:44;3.50;;;3.20;;
3991;SDS011;2010;48.194;16.394;2022-08-04T03:46:58;4.40;;;3.40;;
3991;SDS011;2010;48.194;16.394;2022-08-04T03:52:46;3.80;;;3.50;;
3991;SDS011;2010;48.194;16.394;2022-08-04T03:55:40;5.93;;;3.40;;
3991;SDS011;2010;48.194;16.394;2022-08-04T04:01:11;4.33;;;3.93;;
3991;SDS011;2010;48.194;16.394;2022-08-04T04:04:00;5.17;;;3.30;;
3991;SDS011;2010;48.194;16.394;2022-08-04T04:09:52;4.03;;;3.70;;
3991;SDS011;2010;48.194;16.394;2022-08-04T04:15:25;5.93;;;3.90;;
3991;SDS011;2010;48.194;16.394;2022-08-04T04:18:13;3.30;;;2.97;;
3991;SDS011;2010;48.194;16.394;2022-08-04T04:20:55;3.70;;;3.43;;
3991;SDS011;2010;48.194;16.394;2022-08-04T04:23:33;4.90;;;3.20;;
3991;SDS011;2010;48.194;16.394;2022-08-04T04:26:23;5.40;;;4.10;;
3991;SDS011;2010;48.194;16.394;2022-08-04T04:29:18;4.87;;;4.47;;
3991;SDS011;2010;48.194;16.394;2022-08-04T04:32:02;7.90;;;4.23;;
3991;SDS011;2010;48.194;16.394;2022-08-04T04:34:38;5.33;;;4.40;;
3991;SDS011;2010;48.194;16.394;2022-08-04T04:37:26;7.77;;;6.00;;
3991;SDS011;2010;48.194;16.394;2022-08-04T04:40:19;16.90;;;8.03;;
3991;SDS011;2010;48.194;16.394;2022-08-04T04:45:46;13.67;;;6.30;;
3991;SDS011;2010;48.194;16.394;2022-08-04T04:48:23;9.40;;;6.90;;
3991;SDS011;2010;48.194;16.394;2022-08-04T04:50:59;14.90;;;11.60;;
3991;SDS011;2010;48.194;16.394;2022-08-04T04:53:34;14.17;;;10.70;;
3991;SDS011;2010;48.194;16.394;2022-08-04T04:56:13;13.93;;;8.50;;
3991;SDS011;2010;48.194;16.394;2022-08-04T04:58:44;15.53;;;6.50;;
3991;SDS011;2010;48.194;16.394;2022-08-04T05:01:16;19.90;;;6.63;;
3991;SDS011;2010;48.194;16.394;2022-08-04T05:04:10;31.47;;;7.93;;
3991;SDS011;2010;48.194;16.394;2022-08-04T05:06:52;28.17;;;8.13;;
3991;SDS011;2010;48.194;16.394;2022-08-04T05:09:34;36.10;;;7.70;;
3991;SDS011;2010;48.194;16.394;2022-08-04T05:12:17;32.10;;;8.10;;
3991;SDS011;2010;48.194;16.394;2022-08-04T05:15:12;48.80;;;9.83;;
3991;SDS011;2010;48.194;16.394;2022-08-04T05:17:42;31.33;;;7.47;;
3991;SDS011;2010;48.194;16.394;2022-08-04T05:20:19;19.30;;;6.10;;
3991;SDS011;2010;48.194;16.394;2022-08-04T05:22:51;19.30;;;6.30;;
3991;SDS011;2010;48.194;16.394;2022-08-04T05:25:22;21.63;;;6.60;;
3991;SDS011;2010;48.194;16.394;2022-08-04T05:27:56;24.33;;;7.90;;
3991;SDS011;2010;48.194;16.394;2022-08-04T05:30:27;31.03;;;7.63;;
3991;SDS011;2010;48.194;16.394;2022-08-04T05:32:57;37.60;;;8.00;;
3991;SDS011;2010;48.194;16.394;2022-08-04T05:35:32;96.93;;;15.10;;
3991;SDS011;2010;48.194;16.394;2022-08-04T05:38:22;54.63;;;10.40;;
3991;SDS011;2010;48.194;16.394;2022-08-04T05:40:55;40.80;;;8.57;;
3991;SDS011;2010;48.194;16.394;2022-08-04T05:43:26;33.77;;;8.67;;
3991;SDS011;2010;48.194;16.394;2022-08-04T05:45:54;27.00;;;8.30;;
3991;SDS011;2010;48.194;16.394;2022-08-04T05:48:24;17.93;;;6.43;;
3991;SDS011;2010;48.194;16.394;2022-08-04T05:50:52;10.27;;;6.47;;
3991;SDS011;2010;48.194;16.394;2022-08-04T05:53:26;18.90;;;6.90;;
3991;SDS011;2010;48.194;16.394;2022-08-04T05:55:55;13.70;;;6.53;;
3991;SDS011;2010;48.194;16.394;2022-08-04T05:58:27;22.70;;;6.97;;
3991;SDS011;2010;48.194;16.394;2022-08-04T06:00:56;15.53;;;6.97;;
3991;SDS011;2010;48.194;16.394;2022-08-04T06:03:25;26.30;;;7.50;;
3991;SDS011;2010;48.194;16.394;2022-08-04T06:05:54;79.80;;;12.47;;
3991;SDS011;2010;48.194;16.394;2022-08-04T06:08:28;42.63;;;9.03;;
3991;SDS011;2010;48.194;16.394;2022-08-04T06:10:56;22.27;;;7.40;;
3991;SDS011;2010;48.194;16.394;2022-08-04T06:13:29;39.13;;;7.33;;
3991;SDS011;2010;48.194;16.394;2022-08-04T06:16:17;23.97;;;9.70;;
3991;SDS011;2010;48.194;16.394;2022-08-04T06:18:56;25.87;;;7.60;;
3991;SDS011;2010;48.194;16.394;2022-08-04T06:21:47;21.87;;;7.70;;
3991;SDS011;2010;48.194;16.394;2022-08-04T06:24:18;69.70;;;11.90;;
3991;SDS011;2010;48.194;16.394;2022-08-04T06:26:52;128.63;;;16.00;;
3991;SDS011;2010;48.194;16.394;2022-08-04T06:29:30;80.03;;;11.13;;
3991;SDS011;2010;48.194;16.394;2022-08-04T06:32:20;59.07;;;9.50;;
3991;SDS011;2010;48.194;16.394;2022-08-04T06:35:02;48.97;;;8.80;;
3991;SDS011;2010;48.194;16.394;2022-08-04T06:37:33;38.10;;;7.33;;
3991;SDS011;2010;48.194;16.394;2022-08-04T06:40:10;24.83;;;6.00;;
3991;SDS011;2010;48.194;16.394;2022-08-04T06:42:57;15.23;;;5.10;;
3991;SDS011;2010;48.194;16.394;2022-08-04T06:45:28;15.97;;;5.10;;
3991;SDS011;2010;48.194;16.394;2022-08-04T06:47:56;10.63;;;4.63;;
3991;SDS011;2010;48.194;16.394;2022-08-04T06:50:25;15.23;;;4.80;;
3991;SDS011;2010;48.194;16.394;2022-08-04T06:53:18;15.80;;;6.20;;
3991;SDS011;2010;48.194;16.394;2022-08-04T06:55:47;25.77;;;6.93;;
3991;SDS011;2010;48.194;16.394;2022-08-04T06:58:16;12.93;;;5.53;;
3991;SDS011;2010;48.194;16.394;2022-08-04T07:00:47;96.00;;;11.77;;
3991;SDS011;2010;48.194;16.394;2022-08-04T07:03:16;49.37;;;9.00;;
3991;SDS011;2010;48.194;16.394;2022-08-04T07:05:47;12.90;;;4.93;;
3991;SDS011;2010;48.194;16.394;2022-08-04T07:08:16;13.53;;;4.77;;
3991;SDS011;2010;48.194;16.394;2022-08-04T07:10:47;9.43;;;4.10;;
3991;SDS011;2010;48.194;16.394;2022-08-04T07:13:16;13.37;;;4.17;;
3991;SDS011;2010;48.194;16.394;2022-08-04T07:15:46;6.47;;;4.03;;
3991;SDS011;2010;48.194;16.394;2022-08-04T07:18:17;7.80;;;4.43;;
3991;SDS011;2010;48.194;16.394;2022-08-04T07:20:45;7.60;;;4.37;;
3991;SDS011;2010;48.194;16.394;2022-08-04T07:23:14;9.53;;;5.07;;
3991;SDS011;2010;48.194;16.394;2022-08-04T07:25:49;6.03;;;5.30;;
3991;SDS011;2010;48.194;16.394;2022-08-04T07:28:39;11.23;;;5.13;;
3991;SDS011;2010;48.194;16.394;2022-08-04T07:31:12;8.37;;;5.60;;
3991;SDS011;2010;48.194;16.394;2022-08-04T07:34:04;12.33;;;5.73;;
3991;SDS011;2010;48.194;16.394;2022-08-04T07:36:48;9.47;;;5.80;;
3991;SDS011;2010;48.194;16.394;2022-08-04T07:39:27;13.90;;;6.40;;
3991;SDS011;2010;48.194;16.394;2022-08-04T07:42:14;8.63;;;5.90;;
3991;SDS011;2010;48.194;16.394;2022-08-04T07:44:46;19.50;;;5.97;;
3991;SDS011;2010;48.194;16.394;2022-08-04T07:47:18;10.77;;;5.63;;
3991;SDS011;2010;48.194;16.394;2022-08-04T07:49:51;13.00;;;5.57;;
3991;SDS011;2010;48.194;16.394;2022-08-04T07:52:24;8.97;;;5.53;;
3991;SDS011;2010;48.194;16.394;2022-08-04T07:54:52;12.57;;;5.17;;
3991;SDS011;2010;48.194;16.394;2022-08-04T07:57:22;15.10;;;5.33;;
3991;SDS011;2010;48.194;16.394;2022-08-04T08:00:07;20.30;;;5.07;;
3991;SDS011;2010;48.194;16.394;2022-08-04T08:02:38;10.90;;;4.87;;
3991;SDS011;2010;48.194;16.394;2022-08-04T08:05:07;20.77;;;6.10;;
3991;SDS011;2010;48.194;16.394;2022-08-04T08:07:37;13.37;;;4.60;;
3991;SDS011;2010;48.194;16.394;2022-08-04T08:10:20;9.27;;;5.77;;
3991;SDS011;2010;48.194;16.394;2022-08-04T08:12:54;27.73;;;6.50;;
3991;SDS011;2010;48.194;16.394;2022-08-04T08:15:25;23.87;;;6.27;;
3991;SDS011;2010;48.194;16.394;2022-08-04T08:17:58;13.90;;;10.10;;
3991;SDS011;2010;48.194;16.394;2022-08-04T08:20:27;9.63;;;6.70;;
3991;SDS011;2010;48.194;16.394;2022-08-04T08:22:58;10.93;;;5.80;;
3991;SDS011;2010;48.194;16.394;2022-08-04T08:25:28;15.00;;;5.13;;
3991;SDS011;2010;48.194;16.394;2022-08-04T08:28:01;6.40;;;4.20;;
3991;SDS011;2010;48.194;16.394;2022-08-04T08:30:30;9.27;;;5.23;;
3991;SDS011;2010;48.194;16.394;2022-08-04T08:33:03;11.33;;;4.60;;
3991;SDS011;2010;48.194;16.394;2022-08-04T08:35:41;12.60;;;4.60;;
3991;SDS011;2010;48.194;16.394;2022-08-04T08:38:26;12.67;;;4.63;;
3991;SDS011;2010;48.194;16.394;2022-08-04T08:41:08;9.67;;;5.00;;
3991;SDS011;2010;48.194;16.394;2022-08-04T08:43:56;12.40;;;4.70;;
3991;SDS011;2010;48.194;16.394;2022-08-04T08:46:42;9.53;;;3.97;;
3991;SDS011;2010;48.194;16.394;2022-08-04T08:49:31;6.73;;;4.07;;
3991;SDS011;2010;48.194;16.394;2022-08-04T08:52:37;6.17;;;4.03;;
3991;SDS011;2010;48.194;16.394;2022-08-04T08:55:28;8.13;;;3.50;;
3991;SDS011;2010;48.194;16.394;2022-08-04T08:58:11;6.53;;;3.70;;
3991;SDS011;2010;48.194;16.394;2022-08-04T09:00:50;11.87;;;4.27;;
3991;SDS011;2010;48.194;16.394;2022-08-04T09:03:33;5.63;;;3.90;;
3991;SDS011;2010;48.194;16.394;2022-08-04T09:06:13;20.53;;;4.30;;
3991;SDS011;2010;48.194;16.394;2022-08-04T09:09:01;13.40;;;3.53;;
3991;SDS011;2010;48.194;16.394;2022-08-04T09:11:37;12.10;;;3.77;;
3991;SDS011;2010;48.194;16.394;2022-08-04T09:14:08;3.63;;;3.10;;
3991;SDS011;2010;48.194;16.394;2022-08-04T09:16:44;8.80;;;3.60;;
3991;SDS011;2010;48.194;16.394;2022-08-04T09:19:17;4.10;;;3.80;;
3991;SDS011;2010;48.194;16.394;2022-08-04T09:22:08;5.43;;;3.93;;
3991;SDS011;2010;48.194;16.394;2022-08-04T09:24:40;5.97;;;3.90;;
3991;SDS011;2010;48.194;16.394;2022-08-04T09:27:17;6.17;;;3.93;;
3991;SDS011;2010;48.194;16.394;2022-08-04T09:29:46;10.00;;;4.10;;
3991;SDS011;2010;48.194;16.394;2022-08-04T09:32:22;15.27;;;5.30;;
3991;SDS011;2010;48.194;16.394;2022-08-04T09:35:09;24.90;;;6.57;;
3991;SDS011;2010;48.194;16.394;2022-08-04T09:37:47;21.37;;;6.20;;
3991;SDS011;2010;48.194;16.394;2022-08-04T09:40:25;19.80;;;5.00;;
3991;SDS011;2010;48.194;16.394;2022-08-04T09:43:19;17.37;;;4.60;;
3991;SDS011;2010;48.194;16.394;2022-08-04T09:46:17;13.03;;;3.80;;
3991;SDS011;2010;48.194;16.394;2022-08-04T09:48:50;20.23;;;4.20;;
3991;SDS011;2010;48.194;16.394;2022-08-04T09:51:24;13.33;;;4.30;;
3991;SDS011;2010;48.194;16.394;2022-08-04T09:54:26;11.50;;;3.80;;
3991;SDS011;2010;48.194;16.394;2022-08-04T09:57:07;3.93;;;2.83;;
3991;SDS011;2010;48.194;16.394;2022-08-04T09:59:42;3.27;;;2.73;;
3991;SDS011;2010;48.194;16.394;2022-08-04T10:02:15;4.07;;;2.90;;
3991;SDS011;2010;48.194;16.394;2022-08-04T10:04:45;3.63;;;2.50;;
3991;SDS011;2010;48.194;16.394;2022-08-04T10:07:28;3.20;;;2.30;;
3991;SDS011;2010;48.194;16.394;2022-08-04T10:10:16;4.50;;;2.67;;
3991;SDS011;2010;48.194;16.394;2022-08-04T10:12:57;4.47;;;2.57;;
3991;SDS011;2010;48.194;16.394;2022-08-04T10:15:35;2.80;;;2.40;;
3991;SDS011;2010;48.194;16.394;2022-08-04T10:18:10;2.83;;;2.60;;
3991;SDS011;2010;48.194;16.394;2022-08-04T10:21:00;5.83;;;3.10;;
3991;SDS011;2010;48.194;16.394;2022-08-04T10:23:46;4.17;;;3.37;;
3991;SDS011;2010;48.194;16.394;2022-08-04T10:26:32;3.37;;;2.97;;
3991;SDS011;2010;48.194;16.394;2022-08-04T10:29:06;2.93;;;2.73;;
3991;SDS011;2010;48.194;16.394;2022-08-04T10:31:38;2.90;;;2.77;;
3991;SDS011;2010;48.194;16.394;2022-08-04T10:34:11;3.17;;;2.50;;
3991;SDS011;2010;48.194;16.394;2022-08-04T10:36:44;2.67;;;2.50;;
3991;SDS011;2010;48.194;16.394;2022-08-04T10:39:23;2.20;;;2.00;;
3991;SDS011;2010;48.194;16.394;2022-08-04T10:42:15;2.20;;;2.10;;
3991;SDS011;2010;48.194;16.394;2022-08-04T10:44:51;17.60;;;3.10;;
3991;SDS011;2010;48.194;16.394;2022-08-04T10:47:29;2.77;;;2.30;;
3991;SDS011;2010;48.194;16.394;2022-08-04T10:50:04;3.07;;;2.70;;
3991;SDS011;2010;48.194;16.394;2022-08-04T10:52:35;14.60;;;3.70;;
3991;SDS011;2010;48.194;16.394;2022-08-04T10:55:09;8.27;;;3.47;;
3991;SDS011;2010;48.194;16.394;2022-08-04T10:57:46;2.70;;;2.50;;
3991;SDS011;2010;48.194;16.394;2022-08-04T11:00:23;7.37;;;2.73;;
3991;SDS011;2010;48.194;16.394;2022-08-04T11:02:52;2.70;;;2.50;;
3991;SDS011;2010;48.194;16.394;2022-08-04T11:05:28;9.07;;;3.00;;
3991;SDS011;2010;48.194;16.394;2022-08-04T11:07:58;11.40;;;2.87;;
3991;SDS011;2010;48.194;16.394;2022-08-04T11:10:36;4.13;;;2.70;;
3991;SDS011;2010;48.194;16.394;2022-08-04T11:13:12;2.70;;;2.47;;
3991;SDS011;2010;48.194;16.394;2022-08-04T11:15:55;45.47;;;5.67;;
3991;SDS011;2010;48.194;16.394;2022-08-04T11:18:33;22.10;;;3.77;;
3991;SDS011;2010;48.194;16.394;2022-08-04T11:21:09;20.73;;;3.60;;
3991;SDS011;2010;48.194;16.394;2022-08-04T11:23:46;6.97;;;3.10;;
3991;SDS011;2010;48.194;16.394;2022-08-04T11:26:20;6.20;;;2.50;;
3991;SDS011;2010;48.194;16.394;2022-08-04T11:28:57;4.50;;;2.60;;
3991;SDS011;2010;48.194;16.394;2022-08-04T11:31:34;6.47;;;3.50;;
3991;SDS011;2010;48.194;16.394;2022-08-04T11:34:04;27.83;;;4.47;;
3991;SDS011;2010;48.194;16.394;2022-08-04T11:36:43;16.53;;;3.90;;
3991;SDS011;2010;48.194;16.394;2022-08-04T11:39:14;14.43;;;3.50;;
3991;SDS011;2010;48.194;16.394;2022-08-04T11:41:47;12.27;;;3.90;;
3991;SDS011;2010;48.194;16.394;2022-08-04T11:44:28;15.30;;;4.80;;
3991;SDS011;2010;48.194;16.394;2022-08-04T11:47:01;5.70;;;3.73;;
3991;SDS011;2010;48.194;16.394;2022-08-04T11:49:37;6.90;;;3.50;;
3991;SDS011;2010;48.194;16.394;2022-08-04T11:52:23;6.20;;;3.23;;
3991;SDS011;2010;48.194;16.394;2022-08-04T11:54:53;10.77;;;2.77;;
3991;SDS011;2010;48.194;16.394;2022-08-04T11:57:23;5.33;;;2.43;;
3991;SDS011;2010;48.194;16.394;2022-08-04T12:00:05;3.00;;;2.00;;
3991;SDS011;2010;48.194;16.394;2022-08-04T12:03:00;10.63;;;2.47;;
3991;SDS011;2010;48.194;16.394;2022-08-04T12:05:40;8.43;;;3.00;;
3991;SDS011;2010;48.194;16.394;2022-08-04T12:08:20;18.73;;;4.27;;
3991;SDS011;2010;48.194;16.394;2022-08-04T12:11:11;9.83;;;2.57;;
3991;SDS011;2010;48.194;16.394;2022-08-04T12:13:45;6.80;;;2.60;;
3991;SDS011;2010;48.194;16.394;2022-08-04T12:16:19;12.60;;;2.23;;
3991;SDS011;2010;48.194;16.394;2022-08-04T12:18:56;15.10;;;3.40;;
3991;SDS011;2010;48.194;16.394;2022-08-04T12:21:30;9.50;;;2.57;;
3991;SDS011;2010;48.194;16.394;2022-08-04T12:24:04;2.60;;;2.13;;
3991;SDS011;2010;48.194;16.394;2022-08-04T12:26:36;2.57;;;2.30;;
3991;SDS011;2010;48.194;16.394;2022-08-04T12:29:07;6.73;;;2.93;;
3991;SDS011;2010;48.194;16.394;2022-08-04T12:31:43;8.53;;;2.97;;
3991;SDS011;2010;48.194;16.394;2022-08-04T12:34:14;4.20;;;2.47;;
3991;SDS011;2010;48.194;16.394;2022-08-04T12:36:47;5.00;;;2.57;;
3991;SDS011;2010;48.194;16.394;2022-08-04T12:39:21;2.80;;;2.60;;
3991;SDS011;2010;48.194;16.394;2022-08-04T12:41:51;5.50;;;2.67;;
3991;SDS011;2010;48.194;16.394;2022-08-04T12:44:29;2.73;;;2.50;;
3991;SDS011;2010;48.194;16.394;2022-08-04T12:47:06;7.17;;;2.80;;
3991;SDS011;2010;48.194;16.394;2022-08-04T12:49:59;4.73;;;2.50;;
3991;SDS011;2010;48.194;16.394;2022-08-04T12:52:30;4.37;;;2.90;;
3991;SDS011;2010;48.194;16.394;2022-08-04T12:55:24;4.97;;;2.47;;
3991;SDS011;2010;48.194;16.394;2022-08-04T12:57:55;2.33;;;2.23;;
3991;SDS011;2010;48.194;16.394;2022-08-04T13:00:32;5.17;;;2.50;;
3991;SDS011;2010;48.194;16.394;2022-08-04T13:03:08;7.63;;;2.20;;
3991;SDS011;2010;48.194;16.394;2022-08-04T13:05:38;3.60;;;2.00;;
3991;SDS011;2010;48.194;16.394;2022-08-04T13:08:08;2.50;;;2.30;;
3991;SDS011;2010;48.194;16.394;2022-08-04T13:10:38;2.20;;;2.10;;
3991;SDS011;2010;48.194;16.394;2022-08-04T13:13:11;3.50;;;2.20;;
3991;SDS011;2010;48.194;16.394;2022-08-04T13:15:42;3.93;;;2.67;;
3991;SDS011;2010;48.194;16.394;2022-08-04T13:18:23;5.70;;;4.20;;
3991;SDS011;2010;48.194;16.394;2022-08-04T13:21:07;4.90;;;2.83;;
3991;SDS011;2010;48.194;16.394;2022-08-04T13:23:48;2.87;;;2.67;;
3991;SDS011;2010;48.194;16.394;2022-08-04T13:26:46;2.60;;;2.40;;
3991;SDS011;2010;48.194;16.394;2022-08-04T13:29:21;2.00;;;1.80;;
3991;SDS011;2010;48.194;16.394;2022-08-04T13:32:17;2.53;;;2.30;;
3991;SDS011;2010;48.194;16.394;2022-08-04T13:34:50;5.07;;;2.10;;
3991;SDS011;2010;48.194;16.394;2022-08-04T13:37:23;4.23;;;2.63;;
3991;SDS011;2010;48.194;16.394;2022-08-04T13:39:53;7.03;;;2.60;;
3991;SDS011;2010;48.194;16.394;2022-08-04T13:42:23;6.90;;;2.77;;
3991;SDS011;2010;48.194;16.394;2022-08-04T13:44:54;2.73;;;2.30;;
3991;SDS011;2010;48.194;16.394;2022-08-04T13:47:26;6.97;;;2.87;;
3991;SDS011;2010;48.194;16.394;2022-08-04T13:50:08;14.93;;;2.83;;
3991;SDS011;2010;48.194;16.394;2022-08-04T13:52:43;4.77;;;2.60;;
3991;SDS011;2010;48.194;16.394;2022-08-04T13:55:19;1.93;;;1.83;;
3991;SDS011;2010;48.194;16.394;2022-08-04T13:57:50;3.43;;;2.03;;
3991;SDS011;2010;48.194;16.394;2022-08-04T14:00:25;5.33;;;4.00;;
3991;SDS011;2010;48.194;16.394;2022-08-04T14:03:00;4.87;;;2.97;;
3991;SDS011;2010;48.194;16.394;2022-08-04T14:06:10;4.87;;;2.40;;
3991;SDS011;2010;48.194;16.394;2022-08-04T14:08:51;5.80;;;3.03;;
3991;SDS011;2010;48.194;16.394;2022-08-04T14:11:29;31.57;;;5.00;;
3991;SDS011;2010;48.194;16.394;2022-08-04T14:14:20;28.27;;;5.00;;
3991;SDS011;2010;48.194;16.394;2022-08-04T14:16:57;26.37;;;4.93;;
3991;SDS011;2010;48.194;16.394;2022-08-04T14:19:27;28.23;;;5.10;;
3991;SDS011;2010;48.194;16.394;2022-08-04T14:22:03;18.27;;;2.90;;
3991;SDS011;2010;48.194;16.394;2022-08-04T14:24:31;11.37;;;3.20;;
3991;SDS011;2010;48.194;16.394;2022-08-04T14:27:00;5.00;;;1.97;;
3991;SDS011;2010;48.194;16.394;2022-08-04T14:29:35;6.80;;;2.67;;
3991;SDS011;2010;48.194;16.394;2022-08-04T14:32:05;14.23;;;3.17;;
3991;SDS011;2010;48.194;16.394;2022-08-04T14:34:42;7.00;;;2.30;;
3991;SDS011;2010;48.194;16.394;2022-08-04T14:37:14;7.03;;;2.40;;
3991;SDS011;2010;48.194;16.394;2022-08-04T14:39:47;1.93;;;1.80;;
3991;SDS011;2010;48.194;16.394;2022-08-04T14:42:40;2.40;;;2.20;;
3991;SDS011;2010;48.194;16.394;2022-08-04T14:45:29;4.57;;;2.47;;
3991;SDS011;2010;48.194;16.394;2022-08-04T14:47:58;5.70;;;2.70;;
3991;SDS011;2010;48.194;16.394;2022-08-04T14:50:34;7.13;;;2.40;;
3991;SDS011;2010;48.194;16.394;2022-08-04T14:53:06;3.20;;;2.20;;
3991;SDS011;2010;48.194;16.394;2022-08-04T14:55:36;8.00;;;2.70;;
3991;SDS011;2010;48.194;16.394;2022-08-04T14:58:05;4.27;;;2.20;;
3991;SDS011;2010;48.194;16.394;2022-08-04T15:00:59;7.83;;;2.93;;
3991;SDS011;2010;48.194;16.394;2022-08-04T15:03:38;10.03;;;3.23;;
3991;SDS011;2010;48.194;16.394;2022-08-04T15:06:19;6.70;;;2.43;;
3991;SDS011;2010;48.194;16.394;2022-08-04T15:08:51;9.80;;;2.83;;
3991;SDS011;2010;48.194;16.394;2022-08-04T15:11:21;15.70;;;3.90;;
3991;SDS011;2010;48.194;16.394;2022-08-04T15:13:50;7.00;;;2.90;;
3991;SDS011;2010;48.194;16.394;2022-08-04T15:16:19;3.00;;;1.90;;
3991;SDS011;2010;48.194;16.394;2022-08-04T15:18:48;28.93;;;4.37;;
3991;SDS011;2010;48.194;16.394;2022-08-04T15:21:20;45.97;;;4.93;;
3991;SDS011;2010;48.194;16.394;2022-08-04T15:23:50;38.23;;;3.97;;
3991;SDS011;2010;48.194;16.394;2022-08-04T15:26:22;24.73;;;4.00;;
3991;SDS011;2010;48.194;16.394;2022-08-04T15:28:55;12.03;;;2.77;;
3991;SDS011;2010;48.194;16.394;2022-08-04T15:31:26;11.77;;;2.90;;
3991;SDS011;2010;48.194;16.394;2022-08-04T15:34:14;7.53;;;2.13;;
3991;SDS011;2010;48.194;16.394;2022-08-04T15:36:47;3.30;;;1.83;;
3991;SDS011;2010;48.194;16.394;2022-08-04T15:39:30;3.23;;;1.77;;
3991;SDS011;2010;48.194;16.394;2022-08-04T15:42:08;2.50;;;2.17;;
3991;SDS011;2010;48.194;16.394;2022-08-04T15:45:03;2.10;;;1.90;;
3991;SDS011;2010;48.194;16.394;2022-08-04T15:47:39;1.80;;;1.70;;
3991;SDS011;2010;48.194;16.394;2022-08-04T15:50:18;2.33;;;1.90;;
3991;SDS011;2010;48.194;16.394;2022-08-04T15:53:03;1.83;;;1.70;;
3991;SDS011;2010;48.194;16.394;2022-08-04T15:55:40;2.13;;;2.03;;
3991;SDS011;2010;48.194;16.394;2022-08-04T15:58:14;2.80;;;1.87;;
3991;SDS011;2010;48.194;16.394;2022-08-04T16:03:44;3.20;;;2.13;;
3991;SDS011;2010;48.194;16.394;2022-08-04T16:09:22;1.87;;;1.77;;
3991;SDS011;2010;48.194;16.394;2022-08-04T16:15:37;1.90;;;1.80;;
3991;SDS011;2010;48.194;16.394;2022-08-04T16:18:07;2.40;;;1.93;;
3991;SDS011;2010;48.194;16.394;2022-08-04T16:20:53;3.23;;;1.97;;
3991;SDS011;2010;48.194;16.394;2022-08-04T16:26:41;1.70;;;1.70;;
3991;SDS011;2010;48.194;16.394;2022-08-04T16:29:26;1.57;;;1.57;;
3991;SDS011;2010;48.194;16.394;2022-08-04T16:32:13;2.00;;;1.90;;
3991;SDS011;2010;48.194;16.394;2022-08-04T16:34:46;2.70;;;1.80;;
3991;SDS011;2010;48.194;16.394;2022-08-04T16:37:28;2.13;;;2.03;;
3991;SDS011;2010;48.194;16.394;2022-08-04T16:43:05;1.47;;;1.47;;
3991;SDS011;2010;48.194;16.394;2022-08-04T16:45:39;2.03;;;1.93;;
3991;SDS011;2010;48.194;16.394;2022-08-04T16:48:10;1.87;;;1.77;;
3991;SDS011;2010;48.194;16.394;2022-08-04T16:50:50;1.60;;;1.60;;
3991;SDS011;2010;48.194;16.394;2022-08-04T16:53:20;2.03;;;1.93;;